Time;durP1;ratioP1;P1;durP2;ratioP2;P2;SDS_P1;SDS_P2;PMS_P1;PMS_P2;Temp;Humidity;BMP_temperature;BMP_pressure;BME280_temperature;BME280_humidity;BME280_pressure;Samples;Min_cycle;Max_cycle;Signal;HPM_P1;HPM_P2
2022/11/14 00:00:40;;;;;;;50.30;25.00;;;;;;;;;;4953411;28;20040;-78
2022/11/14 00:03:07;;;;;;;44.78;24.15;;;;;;;;;;4943250;28;20039;-79
2022/11/14 00:05:38;;;;;;;41.83;23.17;;;;;;;;;;4949654;28;20059;-80
2022/11/14 00:08:04;;;;;;;45.10;24.85;;;;;;;;;;4942757;28;20039;-79
2022/11/14 00:10:30;;;;;;;51.63;25.92;;;;;;;;;;4949969;29;20399;-80
2022/11/14 00:12:56;;;;;;;44.58;23.90;;;;;;;;;;4947218;28;20035;-81
2022/11/14 00:15:22;;;;;;;47.30;25.48;;;;;;;;;;4948654;28;20034;-79
2022/11/14 00:17:48;;;;;;;47.22;24.15;;;;;;;;;;4951760;28;20446;-80
2022/11/14 00:20:14;;;;;;;49.85;26.52;;;;;;;;;;4940480;28;20488;-79
2022/11/14 00:22:40;;;;;;;42.08;24.38;;;;;;;;;;4945674;28;20039;-80
2022/11/14 00:25:06;;;;;;;45.55;25.10;;;;;;;;;;4946265;28;20038;-79
2022/11/14 00:27:32;;;;;;;48.08;23.50;;;;;;;;;;4950262;28;20110;-79
2022/11/14 00:29:58;;;;;;;49.90;26.20;;;;;;;;;;4951563;29;20126;-79
2022/11/14 00:32:24;;;;;;;47.75;25.35;;;;;;;;;;4951099;28;20027;-79
2022/11/14 00:34:50;;;;;;;47.78;25.63;;;;;;;;;;4937345;28;20408;-80
2022/11/14 00:37:16;;;;;;;47.95;25.08;;;;;;;;;;4956518;28;20059;-80
2022/11/14 00:39:42;;;;;;;52.38;25.08;;;;;;;;;;4930243;28;20412;-80
2022/11/14 00:42:08;;;;;;;47.08;24.55;;;;;;;;;;4953192;28;20121;-81
2022/11/14 00:44:34;;;;;;;45.47;24.23;;;;;;;;;;4968177;28;20035;-80
2022/11/14 00:47:00;;;;;;;42.90;23.25;;;;;;;;;;4956795;28;20443;-80
2022/11/14 00:49:26;;;;;;;40.35;21.75;;;;;;;;;;4950113;28;20478;-79
2022/11/14 00:51:52;;;;;;;44.13;23.48;;;;;;;;;;4963456;28;20513;-79
2022/11/14 00:54:18;;;;;;;42.33;22.75;;;;;;;;;;4944956;28;20152;-80
2022/11/14 00:56:44;;;;;;;38.95;22.30;;;;;;;;;;4956237;28;20677;-81
2022/11/14 00:59:10;;;;;;;38.00;22.10;;;;;;;;;;4944440;28;20091;-81
2022/11/14 01:01:36;;;;;;;38.78;23.00;;;;;;;;;;4951305;28;20067;-80
2022/11/14 01:04:02;;;;;;;42.60;23.63;;;;;;;;;;4953756;28;20086;-81
2022/11/14 01:06:28;;;;;;;41.40;21.85;;;;;;;;;;4946261;28;20132;-81
2022/11/14 01:08:54;;;;;;;39.00;22.75;;;;;;;;;;4950648;28;20170;-81
2022/11/14 01:11:21;;;;;;;35.97;22.08;;;;;;;;;;4952412;28;21145;-80
2022/11/14 01:13:47;;;;;;;40.85;23.58;;;;;;;;;;4950010;28;20334;-79
2022/11/14 01:16:13;;;;;;;36.60;22.13;;;;;;;;;;4967792;28;20080;-79
2022/11/14 01:18:40;;;;;;;38.92;22.80;;;;;;;;;;4943358;28;20028;-79
2022/11/14 01:21:07;;;;;;;44.20;24.98;;;;;;;;;;4957361;28;20438;-80
2022/11/14 01:23:33;;;;;;;36.47;22.70;;;;;;;;;;4953316;28;20075;-79
2022/11/14 01:26:02;;;;;;;37.22;22.83;;;;;;;;;;4943455;28;20491;-80
2022/11/14 01:28:28;;;;;;;35.92;22.63;;;;;;;;;;4957784;28;20492;-79
2022/11/14 01:30:54;;;;;;;39.55;23.88;;;;;;;;;;4940899;28;20044;-80
2022/11/14 01:33:20;;;;;;;40.80;24.45;;;;;;;;;;4955053;29;20053;-79
2022/11/14 01:35:46;;;;;;;33.28;20.48;;;;;;;;;;4946586;28;20564;-79
2022/11/14 01:38:13;;;;;;;37.03;23.10;;;;;;;;;;4936619;29;20041;-79
2022/11/14 01:40:44;;;;;;;41.05;24.50;;;;;;;;;;4952501;28;20039;-79
2022/11/14 01:43:16;;;;;;;37.40;24.02;;;;;;;;;;4947838;28;20547;-80
2022/11/14 01:45:48;;;;;;;40.28;22.92;;;;;;;;;;4950697;28;20040;-79
2022/11/14 01:48:19;;;;;;;38.80;25.13;;;;;;;;;;4936640;28;20047;-79
2022/11/14 01:50:45;;;;;;;37.15;23.60;;;;;;;;;;4967348;28;20496;-79
2022/11/14 01:53:11;;;;;;;40.42;23.25;;;;;;;;;;4953827;28;20043;-79
2022/11/14 01:55:37;;;;;;;42.22;24.45;;;;;;;;;;4949345;28;20556;-79
2022/11/14 01:58:03;;;;;;;44.35;25.02;;;;;;;;;;4952146;28;20125;-81
2022/11/14 02:00:29;;;;;;;39.78;24.90;;;;;;;;;;4956362;28;20106;-78
2022/11/14 02:02:56;;;;;;;37.10;23.80;;;;;;;;;;4950780;28;20040;-81
2022/11/14 02:05:22;;;;;;;43.78;25.30;;;;;;;;;;4932186;28;20055;-81
2022/11/14 02:07:48;;;;;;;41.90;26.13;;;;;;;;;;4936901;29;20080;-82
2022/11/14 02:10:16;;;;;;;43.80;27.40;;;;;;;;;;4934693;29;20488;-82
2022/11/14 02:12:42;;;;;;;40.13;25.73;;;;;;;;;;4931742;29;20032;-83
2022/11/14 02:15:08;;;;;;;39.50;25.80;;;;;;;;;;4929536;29;20111;-82
2022/11/14 02:17:35;;;;;;;46.78;26.70;;;;;;;;;;4927043;29;20554;-81
2022/11/14 02:20:21;;;;;;;40.78;25.55;;;;;;;;;;4946957;29;20390;-81
2022/11/14 02:22:47;;;;;;;46.08;27.52;;;;;;;;;;4929160;29;20031;-80
2022/11/14 02:25:14;;;;;;;38.30;24.83;;;;;;;;;;4934424;29;20079;-80
2022/11/14 02:27:41;;;;;;;42.83;27.58;;;;;;;;;;4930885;29;20038;-78
2022/11/14 02:30:09;;;;;;;45.35;25.42;;;;;;;;;;4931948;29;20043;-78
2022/11/14 02:32:35;;;;;;;40.88;26.38;;;;;;;;;;4931577;29;20038;-78
2022/11/14 02:35:01;;;;;;;42.55;27.40;;;;;;;;;;4929125;29;20039;-80
2022/11/14 02:37:27;;;;;;;45.67;28.13;;;;;;;;;;4943917;29;20059;-78
2022/11/14 02:39:53;;;;;;;40.78;27.55;;;;;;;;;;4927635;29;20071;-79
2022/11/14 02:42:19;;;;;;;42.45;27.80;;;;;;;;;;4932568;29;20197;-79
2022/11/14 02:44:45;;;;;;;45.25;29.38;;;;;;;;;;4934670;29;20036;-78
2022/11/14 02:47:11;;;;;;;44.95;30.50;;;;;;;;;;4926937;29;20035;-78
2022/11/14 02:49:37;;;;;;;50.17;30.10;;;;;;;;;;4911670;29;20508;-80
2022/11/14 02:52:03;;;;;;;47.25;29.73;;;;;;;;;;4923035;29;20040;-78
2022/11/14 02:54:29;;;;;;;44.33;28.80;;;;;;;;;;4927421;29;20422;-79
2022/11/14 02:56:55;;;;;;;49.60;31.02;;;;;;;;;;4931630;29;20024;-80
2022/11/14 02:59:21;;;;;;;54.05;34.03;;;;;;;;;;4931581;29;20122;-79
2022/11/14 03:01:47;;;;;;;55.42;32.35;;;;;;;;;;4934885;29;20039;-80
2022/11/14 03:04:13;;;;;;;55.17;32.13;;;;;;;;;;4928210;28;20449;-78
2022/11/14 03:06:39;;;;;;;55.17;34.33;;;;;;;;;;4967584;28;20031;-82
2022/11/14 03:09:05;;;;;;;57.90;34.33;;;;;;;;;;4954275;28;20039;-80
2022/11/14 03:11:31;;;;;;;55.42;34.10;;;;;;;;;;4959957;28;20034;-80
2022/11/14 03:13:58;;;;;;;55.88;35.75;;;;;;;;;;4945177;28;20031;-79
2022/11/14 03:16:24;;;;;;;63.53;36.08;;;;;;;;;;4952809;28;20065;-79
2022/11/14 03:18:50;;;;;;;61.95;36.22;;;;;;;;;;4949436;28;20043;-79
2022/11/14 03:21:18;;;;;;;58.25;36.13;;;;;;;;;;4951372;28;20042;-79
2022/11/14 03:23:44;;;;;;;59.42;35.70;;;;;;;;;;4949914;28;20091;-80
2022/11/14 03:26:10;;;;;;;56.17;35.10;;;;;;;;;;4947667;28;20044;-79
2022/11/14 03:28:37;;;;;;;63.85;38.45;;;;;;;;;;4953586;28;20059;-79
2022/11/14 03:31:04;;;;;;;55.53;35.15;;;;;;;;;;4946903;28;20034;-79
2022/11/14 03:33:30;;;;;;;64.65;38.90;;;;;;;;;;4952444;28;20544;-78
2022/11/14 03:35:56;;;;;;;65.55;38.28;;;;;;;;;;4931384;29;20049;-79
2022/11/14 03:38:22;;;;;;;59.95;36.50;;;;;;;;;;4951753;28;20028;-78
2022/11/14 03:40:49;;;;;;;56.72;35.10;;;;;;;;;;4948442;28;20054;-77
2022/11/14 03:43:15;;;;;;;61.47;36.50;;;;;;;;;;4951125;28;20043;-78
2022/11/14 03:45:41;;;;;;;62.13;37.55;;;;;;;;;;4925252;29;20032;-78
2022/11/14 03:48:07;;;;;;;64.25;38.55;;;;;;;;;;4945170;28;20046;-78
2022/11/14 03:50:33;;;;;;;60.25;37.88;;;;;;;;;;4937113;28;20031;-78
2022/11/14 03:52:59;;;;;;;69.90;37.83;;;;;;;;;;4961378;28;20071;-80
2022/11/14 03:55:25;;;;;;;65.43;37.65;;;;;;;;;;4956198;28;20369;-78
2022/11/14 03:57:51;;;;;;;63.55;36.95;;;;;;;;;;4951439;28;20034;-78
2022/11/14 04:00:17;;;;;;;62.50;36.15;;;;;;;;;;4944942;28;20432;-81
2022/11/14 04:02:43;;;;;;;64.15;37.83;;;;;;;;;;4950394;28;20046;-79
2022/11/14 04:05:09;;;;;;;64.75;38.80;;;;;;;;;;4939374;28;20051;-79
2022/11/14 04:07:35;;;;;;;61.97;37.15;;;;;;;;;;4913179;29;20139;-79
2022/11/14 04:10:01;;;;;;;65.95;38.58;;;;;;;;;;4922698;29;20096;-79
2022/11/14 04:12:27;;;;;;;71.65;39.30;;;;;;;;;;4927801;29;20039;-80
2022/11/14 04:14:55;;;;;;;67.90;38.35;;;;;;;;;;4934761;29;20086;-80
2022/11/14 04:17:21;;;;;;;60.63;37.35;;;;;;;;;;4926606;29;20063;-78
2022/11/14 04:19:46;;;;;;;64.38;37.95;;;;;;;;;;4931647;29;20040;-79
2022/11/14 04:22:12;;;;;;;67.43;37.53;;;;;;;;;;4911776;29;20371;-79
2022/11/14 04:24:38;;;;;;;61.03;36.75;;;;;;;;;;4923164;29;20027;-78
2022/11/14 04:27:04;;;;;;;69.95;40.08;;;;;;;;;;4930608;29;20042;-78
2022/11/14 04:29:30;;;;;;;70.75;39.60;;;;;;;;;;4930739;29;20051;-80
2022/11/14 04:31:56;;;;;;;77.80;45.22;;;;;;;;;;4923561;29;20122;-81
2022/11/14 04:34:22;;;;;;;67.53;39.78;;;;;;;;;;4923274;29;20092;-76
2022/11/14 04:36:51;;;;;;;63.67;38.63;;;;;;;;;;4926936;29;20043;-78
2022/11/14 04:39:17;;;;;;;69.43;38.90;;;;;;;;;;4927359;29;20043;-78
2022/11/14 04:41:43;;;;;;;63.65;37.40;;;;;;;;;;4924891;29;20210;-79
2022/11/14 04:44:09;;;;;;;66.25;37.40;;;;;;;;;;4927455;29;20529;-78
2022/11/14 04:46:35;;;;;;;61.63;37.28;;;;;;;;;;4929875;29;20031;-79
2022/11/14 04:49:01;;;;;;;60.58;35.63;;;;;;;;;;4914658;29;20474;-78
2022/11/14 04:51:27;;;;;;;61.83;36.70;;;;;;;;;;4930055;29;20106;-79
2022/11/14 04:53:53;;;;;;;69.22;37.80;;;;;;;;;;4938675;29;20138;-80
2022/11/14 04:56:22;;;;;;;67.05;37.83;;;;;;;;;;4937028;29;20035;-79
2022/11/14 04:58:48;;;;;;;63.45;38.72;;;;;;;;;;4933333;29;20521;-78
2022/11/14 05:01:14;;;;;;;65.90;37.25;;;;;;;;;;4931279;29;20043;-79
2022/11/14 05:03:40;;;;;;;58.30;37.10;;;;;;;;;;4928000;29;20460;-78
2022/11/14 05:06:06;;;;;;;67.28;38.42;;;;;;;;;;4952497;29;20421;-79
2022/11/14 05:08:32;;;;;;;67.13;37.08;;;;;;;;;;4943877;28;20055;-79
2022/11/14 05:10:58;;;;;;;64.60;38.00;;;;;;;;;;4951434;28;20583;-80
2022/11/14 05:13:24;;;;;;;64.47;38.38;;;;;;;;;;4951424;28;20039;-80
2022/11/14 05:15:50;;;;;;;59.22;36.10;;;;;;;;;;4968367;28;20345;-78
2022/11/14 05:18:16;;;;;;;66.38;39.00;;;;;;;;;;4948665;28;20717;-80
2022/11/14 05:20:42;;;;;;;61.58;35.78;;;;;;;;;;4954505;28;20086;-79
2022/11/14 05:23:21;;;;;;;63.75;37.47;;;;;;;;;;4946366;28;20118;-81
2022/11/14 05:25:47;;;;;;;75.05;39.45;;;;;;;;;;4952134;28;20114;-78
2022/11/14 05:28:13;;;;;;;67.05;38.92;;;;;;;;;;4962561;28;20134;-81
2022/11/14 05:30:39;;;;;;;63.88;38.22;;;;;;;;;;4953421;28;20043;-78
2022/11/14 05:33:05;;;;;;;60.50;36.08;;;;;;;;;;4944460;28;20042;-75
2022/11/14 05:35:31;;;;;;;59.17;35.20;;;;;;;;;;4950892;28;20119;-77
2022/11/14 05:38:01;;;;;;;60.58;37.30;;;;;;;;;;4951652;28;20472;-81
2022/11/14 05:40:27;;;;;;;66.28;37.72;;;;;;;;;;4949269;28;20028;-81
2022/11/14 05:42:56;;;;;;;68.47;37.78;;;;;;;;;;4946963;28;20118;-80
2022/11/14 05:45:22;;;;;;;64.38;35.40;;;;;;;;;;4951091;28;20517;-79
2022/11/14 05:47:48;;;;;;;82.20;43.42;;;;;;;;;;4953303;28;20093;-82
2022/11/14 05:50:15;;;;;;;75.95;42.33;;;;;;;;;;4957975;28;20093;-80
2022/11/14 05:52:41;;;;;;;66.63;39.13;;;;;;;;;;4944334;28;20163;-79
2022/11/14 05:55:07;;;;;;;65.70;37.55;;;;;;;;;;4943956;28;20083;-80
2022/11/14 05:57:34;;;;;;;59.10;37.17;;;;;;;;;;4940759;28;20035;-79
2022/11/14 06:00:02;;;;;;;67.90;39.40;;;;;;;;;;4959957;28;20032;-78
2022/11/14 06:02:28;;;;;;;61.78;36.65;;;;;;;;;;4956615;28;20154;-79
2022/11/14 06:04:54;;;;;;;62.92;37.10;;;;;;;;;;4956739;28;20125;-79
2022/11/14 06:07:20;;;;;;;67.32;39.13;;;;;;;;;;4955209;28;20076;-82
2022/11/14 06:09:46;;;;;;;70.05;39.13;;;;;;;;;;4957736;28;20049;-83
2022/11/14 06:12:12;;;;;;;66.28;38.30;;;;;;;;;;4952669;28;20385;-81
2022/11/14 06:14:38;;;;;;;61.00;35.28;;;;;;;;;;4947533;28;20035;-82
2022/11/14 06:17:04;;;;;;;58.45;37.42;;;;;;;;;;4933405;28;20136;-79
2022/11/14 06:19:30;;;;;;;56.88;35.10;;;;;;;;;;4955101;28;20114;-79
2022/11/14 06:21:56;;;;;;;60.72;34.42;;;;;;;;;;4939270;28;20031;-82
2022/11/14 06:24:22;;;;;;;58.47;36.10;;;;;;;;;;4946665;28;20156;-81
2022/11/14 06:26:48;;;;;;;60.97;37.40;;;;;;;;;;4945689;28;20039;-81
2022/11/14 06:29:14;;;;;;;57.25;36.25;;;;;;;;;;4958963;28;20047;-77
2022/11/14 06:31:40;;;;;;;61.80;37.17;;;;;;;;;;4942255;28;20038;-78
2022/11/14 06:34:06;;;;;;;64.25;38.22;;;;;;;;;;4960609;28;20400;-83
2022/11/14 06:36:32;;;;;;;65.28;37.38;;;;;;;;;;4942097;28;20035;-78
2022/11/14 06:38:58;;;;;;;59.08;36.63;;;;;;;;;;4951403;28;20047;-79
2022/11/14 06:41:24;;;;;;;56.20;34.22;;;;;;;;;;4942098;28;20420;-82
2022/11/14 06:43:54;;;;;;;83.10;50.17;;;;;;;;;;4946823;28;20114;-81
2022/11/14 06:46:21;;;;;;;63.38;36.95;;;;;;;;;;4951834;28;20031;-81
2022/11/14 06:48:47;;;;;;;60.50;36.75;;;;;;;;;;4951618;28;20049;-79
2022/11/14 06:51:14;;;;;;;56.72;35.08;;;;;;;;;;4956300;28;20559;-80
2022/11/14 06:53:41;;;;;;;57.58;35.47;;;;;;;;;;4937030;28;20056;-81
2022/11/14 06:56:08;;;;;;;55.30;35.00;;;;;;;;;;4946833;28;20424;-82
2022/11/14 06:58:37;;;;;;;58.80;35.38;;;;;;;;;;4953977;28;20043;-82
2022/11/14 07:01:04;;;;;;;56.47;35.22;;;;;;;;;;4943380;28;20030;-78
2022/11/14 07:03:30;;;;;;;61.65;35.47;;;;;;;;;;4957574;28;20042;-81
2022/11/14 07:06:00;;;;;;;60.28;36.05;;;;;;;;;;4954958;28;20418;-80
2022/11/14 07:08:26;;;;;;;58.17;36.15;;;;;;;;;;4942439;28;20043;-81
2022/11/14 07:10:52;;;;;;;65.53;36.70;;;;;;;;;;4960488;28;20043;-82
2022/11/14 07:13:18;;;;;;;59.22;35.10;;;;;;;;;;4934942;28;20035;-78
2022/11/14 07:15:55;;;;;;;59.00;35.13;;;;;;;;;;4945586;28;20384;-82
2022/11/14 07:18:21;;;;;;;58.35;35.65;;;;;;;;;;4949351;28;20047;-78
2022/11/14 07:20:47;;;;;;;56.47;35.05;;;;;;;;;;4948919;28;20031;-79
2022/11/14 07:23:13;;;;;;;59.58;35.42;;;;;;;;;;4960162;28;20031;-80
2022/11/14 07:25:39;;;;;;;60.92;33.25;;;;;;;;;;4963109;28;20035;-79
2022/11/14 07:28:06;;;;;;;61.80;35.33;;;;;;;;;;4965173;28;20077;-81
2022/11/14 07:30:35;;;;;;;61.15;35.83;;;;;;;;;;4948531;28;20393;-81
2022/11/14 07:33:01;;;;;;;65.20;36.60;;;;;;;;;;4939107;28;20036;-79
2022/11/14 07:35:27;;;;;;;63.50;36.65;;;;;;;;;;4952475;29;20042;-78
2022/11/14 07:37:53;;;;;;;64.38;36.38;;;;;;;;;;4938852;28;20019;-81
2022/11/14 07:40:19;;;;;;;65.82;37.47;;;;;;;;;;4948229;28;20039;-77
2022/11/14 07:42:45;;;;;;;65.63;38.03;;;;;;;;;;4941700;28;20054;-79
2022/11/14 07:45:11;;;;;;;69.45;38.33;;;;;;;;;;4955151;28;20480;-78
2022/11/14 07:47:37;;;;;;;71.60;40.03;;;;;;;;;;4940403;28;20031;-80
2022/11/14 07:50:03;;;;;;;71.05;41.28;;;;;;;;;;4955289;28;20396;-78
2022/11/14 07:52:32;;;;;;;65.88;37.05;;;;;;;;;;4942641;28;20039;-79
2022/11/14 07:54:58;;;;;;;67.05;36.50;;;;;;;;;;4949673;28;20061;-81
2022/11/14 07:57:25;;;;;;;71.45;36.88;;;;;;;;;;4950542;28;20066;-81
2022/11/14 07:59:51;;;;;;;68.85;39.15;;;;;;;;;;4947868;28;20027;-80
2022/11/14 08:02:17;;;;;;;66.78;36.85;;;;;;;;;;4925873;28;20074;-79
2022/11/14 08:04:43;;;;;;;68.68;38.00;;;;;;;;;;4956071;28;20079;-79
2022/11/14 08:07:09;;;;;;;68.38;37.60;;;;;;;;;;4929019;28;20106;-79
2022/11/14 08:09:35;;;;;;;73.13;38.15;;;;;;;;;;4945028;28;20058;-84
2022/11/14 08:12:01;;;;;;;68.65;37.53;;;;;;;;;;4940649;28;20039;-82
2022/11/14 08:14:27;;;;;;;71.97;38.67;;;;;;;;;;4951978;28;20110;-80
2022/11/14 08:16:53;;;;;;;72.32;38.92;;;;;;;;;;4947297;28;20115;-82
2022/11/14 08:19:19;;;;;;;71.80;37.60;;;;;;;;;;4949288;28;20039;-81
2022/11/14 08:21:45;;;;;;;72.57;38.00;;;;;;;;;;4929567;28;20039;-76
2022/11/14 08:24:12;;;;;;;75.78;40.05;;;;;;;;;;4925442;28;20043;-77
2022/11/14 08:26:38;;;;;;;89.70;49.38;;;;;;;;;;4950840;29;20034;-78
2022/11/14 08:29:04;;;;;;;74.43;42.35;;;;;;;;;;4941847;28;20852;-77
2022/11/14 08:31:30;;;;;;;64.20;37.05;;;;;;;;;;4949583;28;20043;-78
2022/11/14 08:33:56;;;;;;;64.75;35.75;;;;;;;;;;4929581;29;20123;-77
2022/11/14 08:36:22;;;;;;;68.43;35.55;;;;;;;;;;4955556;28;20098;-78
2022/11/14 08:38:48;;;;;;;65.60;37.03;;;;;;;;;;4947162;28;20035;-78
2022/11/14 08:41:14;;;;;;;69.18;36.95;;;;;;;;;;4961289;28;20257;-79
2022/11/14 08:43:40;;;;;;;65.90;36.67;;;;;;;;;;4943373;28;20110;-78
2022/11/14 08:46:06;;;;;;;63.50;35.95;;;;;;;;;;4949693;28;20167;-79
2022/11/14 08:48:32;;;;;;;66.65;38.53;;;;;;;;;;4940844;28;20039;-77
2022/11/14 08:51:01;;;;;;;64.05;36.40;;;;;;;;;;4948668;28;20035;-78
2022/11/14 08:53:27;;;;;;;71.47;37.85;;;;;;;;;;4946123;28;20059;-77
2022/11/14 08:55:53;;;;;;;69.32;36.42;;;;;;;;;;4942012;28;20082;-79
2022/11/14 08:58:19;;;;;;;68.53;36.88;;;;;;;;;;4945656;28;20031;-78
2022/11/14 09:00:45;;;;;;;70.18;35.78;;;;;;;;;;4945982;28;20082;-79
2022/11/14 09:03:13;;;;;;;68.50;35.55;;;;;;;;;;4951242;29;20038;-81
2022/11/14 09:05:39;;;;;;;62.13;33.97;;;;;;;;;;4937271;28;20067;-79
2022/11/14 09:08:06;;;;;;;64.18;35.45;;;;;;;;;;4947426;28;20056;-81
2022/11/14 09:10:32;;;;;;;65.75;36.85;;;;;;;;;;4942349;28;20044;-80
2022/11/14 09:12:59;;;;;;;65.68;34.58;;;;;;;;;;4960760;28;20046;-78
2022/11/14 09:15:26;;;;;;;68.22;38.35;;;;;;;;;;4945355;28;20035;-77
2022/11/14 09:17:55;;;;;;;65.10;36.38;;;;;;;;;;4963478;28;20035;-78
2022/11/14 09:20:22;;;;;;;61.13;35.80;;;;;;;;;;4945050;28;20058;-78
2022/11/14 09:22:51;;;;;;;62.63;34.40;;;;;;;;;;4950549;28;20117;-78
2022/11/14 09:25:17;;;;;;;59.92;35.10;;;;;;;;;;4934308;28;20067;-78
2022/11/14 09:27:43;;;;;;;63.85;35.30;;;;;;;;;;4951274;29;20050;-78
2022/11/14 09:30:09;;;;;;;62.80;35.03;;;;;;;;;;4940696;28;20479;-82
2022/11/14 09:32:35;;;;;;;55.90;35.22;;;;;;;;;;4948616;28;20043;-78
2022/11/14 09:35:01;;;;;;;62.35;35.00;;;;;;;;;;4954137;28;20027;-78
2022/11/14 09:37:27;;;;;;;59.70;33.92;;;;;;;;;;4954218;28;20082;-81
2022/11/14 09:39:53;;;;;;;59.97;34.88;;;;;;;;;;4943834;28;20035;-80
2022/11/14 09:42:19;;;;;;;61.50;34.30;;;;;;;;;;4942996;28;20504;-83
2022/11/14 09:44:49;;;;;;;57.25;33.40;;;;;;;;;;4955089;28;20034;-78
2022/11/14 09:47:21;;;;;;;58.03;32.08;;;;;;;;;;4954173;28;20023;-77
2022/11/14 09:49:49;;;;;;;57.10;32.40;;;;;;;;;;4958232;28;20034;-79
2022/11/14 09:52:30;;;;;;;54.17;30.90;;;;;;;;;;4948686;28;20035;-79
2022/11/14 09:54:58;;;;;;;58.40;30.98;;;;;;;;;;4945396;28;20114;-76
2022/11/14 09:57:25;;;;;;;56.13;33.08;;;;;;;;;;4941501;28;20106;-78
2022/11/14 09:59:51;;;;;;;55.78;34.53;;;;;;;;;;4951390;28;20489;-81
2022/11/14 10:02:17;;;;;;;55.03;31.67;;;;;;;;;;4961641;28;20066;-81
2022/11/14 10:04:49;;;;;;;50.10;31.27;;;;;;;;;;4942312;28;20070;-80
2022/11/14 10:07:18;;;;;;;50.17;30.05;;;;;;;;;;4936263;29;20031;-81
2022/11/14 10:09:50;;;;;;;55.80;33.10;;;;;;;;;;4930667;29;20062;-76
2022/11/14 10:12:22;;;;;;;50.03;31.85;;;;;;;;;;4929441;29;20038;-81
2022/11/14 10:15:01;;;;;;;48.28;31.50;;;;;;;;;;4928262;29;20102;-81
2022/11/14 10:17:45;;;;;;;50.42;29.92;;;;;;;;;;4936318;29;20042;-79
2022/11/14 10:20:20;;;;;;;44.72;29.02;;;;;;;;;;4927812;29;20088;-79
2022/11/14 10:23:01;;;;;;;48.15;29.70;;;;;;;;;;4914858;29;20383;-80
2022/11/14 10:25:47;;;;;;;46.65;29.58;;;;;;;;;;4936438;29;20392;-79
2022/11/14 10:28:31;;;;;;;46.55;29.30;;;;;;;;;;4923775;29;20024;-81
2022/11/14 10:31:16;;;;;;;45.58;29.30;;;;;;;;;;4929359;29;20135;-82
2022/11/14 10:34:05;;;;;;;46.90;28.75;;;;;;;;;;4932204;29;20035;-82
2022/11/14 10:36:46;;;;;;;56.05;36.22;;;;;;;;;;4897508;29;20048;-77
2022/11/14 10:39:21;;;;;;;50.58;30.75;;;;;;;;;;4926843;29;20039;-76
2022/11/14 10:41:50;;;;;;;43.33;26.65;;;;;;;;;;4950300;29;20027;-81
2022/11/14 10:44:18;;;;;;;41.53;27.13;;;;;;;;;;4924465;29;20031;-80
2022/11/14 10:46:50;;;;;;;41.15;27.42;;;;;;;;;;4932589;29;20382;-77
2022/11/14 10:49:18;;;;;;;41.40;27.17;;;;;;;;;;4921219;29;20043;-77
2022/11/14 10:51:46;;;;;;;46.00;27.67;;;;;;;;;;4944989;29;20039;-80
2022/11/14 10:54:24;;;;;;;42.65;27.42;;;;;;;;;;4931533;29;20039;-78
2022/11/14 10:56:52;;;;;;;41.85;26.88;;;;;;;;;;4926723;29;20047;-79
2022/11/14 10:59:18;;;;;;;40.63;27.42;;;;;;;;;;4925891;29;20431;-79
2022/11/14 11:01:45;;;;;;;39.05;25.10;;;;;;;;;;4929124;29;20024;-78
2022/11/14 11:04:35;;;;;;;40.80;26.48;;;;;;;;;;4930205;29;20119;-77
2022/11/14 11:07:07;;;;;;;40.17;27.20;;;;;;;;;;4933009;29;20036;-79
2022/11/14 11:12:45;;;;;;;39.72;25.92;;;;;;;;;;4933299;29;20490;-81
2022/11/14 11:15:18;;;;;;;37.05;24.85;;;;;;;;;;4917065;29;20020;-81
2022/11/14 11:17:53;;;;;;;42.72;25.65;;;;;;;;;;4934252;29;20035;-79
2022/11/14 11:20:22;;;;;;;37.70;25.73;;;;;;;;;;4919710;29;20032;-79
2022/11/14 11:22:48;;;;;;;40.58;26.33;;;;;;;;;;4936731;29;20028;-76
2022/11/14 11:25:25;;;;;;;42.35;26.90;;;;;;;;;;4924731;29;20115;-79
2022/11/14 11:28:10;;;;;;;53.05;32.30;;;;;;;;;;4939623;29;20529;-78
2022/11/14 11:30:36;;;;;;;41.15;27.48;;;;;;;;;;4937220;29;20039;-79
2022/11/14 11:33:20;;;;;;;39.25;26.02;;;;;;;;;;4938262;29;20032;-76
2022/11/14 11:35:49;;;;;;;43.35;27.58;;;;;;;;;;4929708;29;20090;-78
2022/11/14 11:38:16;;;;;;;41.25;26.13;;;;;;;;;;4933657;29;20134;-80
2022/11/14 11:40:47;;;;;;;44.58;27.63;;;;;;;;;;4924971;29;20039;-78
2022/11/14 11:43:19;;;;;;;40.97;25.63;;;;;;;;;;4925274;29;20036;-75
2022/11/14 11:45:46;;;;;;;46.20;26.27;;;;;;;;;;4932554;29;20477;-76
2022/11/14 11:48:12;;;;;;;40.50;26.20;;;;;;;;;;4926845;29;20074;-75
2022/11/14 11:50:39;;;;;;;42.78;26.75;;;;;;;;;;4932159;29;20401;-76
2022/11/14 11:53:26;;;;;;;41.65;26.98;;;;;;;;;;4919327;29;20094;-79
2022/11/14 11:55:59;;;;;;;41.03;25.92;;;;;;;;;;4927066;29;20036;-78
2022/11/14 11:58:31;;;;;;;44.95;28.48;;;;;;;;;;4909195;29;20028;-77
2022/11/14 12:00:57;;;;;;;42.10;25.90;;;;;;;;;;4911610;29;20044;-80
2022/11/14 12:03:24;;;;;;;38.63;25.35;;;;;;;;;;4934462;29;20047;-77
2022/11/14 12:06:07;;;;;;;37.58;24.58;;;;;;;;;;4929834;28;20507;-82
2022/11/14 12:08:40;;;;;;;35.65;24.52;;;;;;;;;;4936048;29;20031;-81
2022/11/14 12:11:11;;;;;;;42.30;26.73;;;;;;;;;;4944947;29;20121;-82
2022/11/14 12:13:47;;;;;;;41.97;25.48;;;;;;;;;;4930344;29;20075;-80
2022/11/14 12:16:31;;;;;;;42.25;25.88;;;;;;;;;;4920383;29;20480;-79
2022/11/14 12:18:57;;;;;;;40.03;25.60;;;;;;;;;;4930498;29;20040;-79
2022/11/14 12:21:32;;;;;;;37.85;25.20;;;;;;;;;;4926202;29;20039;-79
2022/11/14 12:24:13;;;;;;;38.10;25.35;;;;;;;;;;4925518;29;20031;-83
2022/11/14 12:26:45;;;;;;;61.85;33.38;;;;;;;;;;4930469;29;20050;-77
2022/11/14 12:29:11;;;;;;;44.60;29.57;;;;;;;;;;4926605;29;20071;-78
2022/11/14 12:31:38;;;;;;;37.47;25.55;;;;;;;;;;4926892;29;20299;-81
2022/11/14 12:34:07;;;;;;;37.67;25.65;;;;;;;;;;4915386;29;20060;-79
2022/11/14 12:36:34;;;;;;;38.97;25.55;;;;;;;;;;4924885;29;20023;-80
2022/11/14 12:39:01;;;;;;;37.90;24.92;;;;;;;;;;4935743;29;20032;-80
2022/11/14 12:41:36;;;;;;;39.10;26.02;;;;;;;;;;4932294;29;20176;-77
2022/11/14 12:44:21;;;;;;;41.53;26.48;;;;;;;;;;4918255;29;20114;-80
2022/11/14 12:47:12;;;;;;;37.33;25.42;;;;;;;;;;4927186;29;20401;-78
2022/11/14 12:49:56;;;;;;;38.65;24.13;;;;;;;;;;4936027;29;20046;-78
2022/11/14 12:52:42;;;;;;;34.28;23.23;;;;;;;;;;4930449;29;20023;-77
2022/11/14 12:55:26;;;;;;;35.53;23.77;;;;;;;;;;4935186;29;20468;-78
2022/11/14 12:57:55;;;;;;;36.40;23.25;;;;;;;;;;4928236;29;20035;-78
2022/11/14 13:00:21;;;;;;;31.40;21.58;;;;;;;;;;4926917;29;20027;-79
2022/11/14 13:02:48;;;;;;;35.75;25.27;;;;;;;;;;4920126;29;20055;-80
2022/11/14 13:05:20;;;;;;;36.90;25.30;;;;;;;;;;4935769;28;20086;-78
2022/11/14 13:07:52;;;;;;;39.05;25.27;;;;;;;;;;4934480;29;20473;-78
2022/11/14 13:10:27;;;;;;;36.40;23.83;;;;;;;;;;4931323;29;20079;-79
2022/11/14 13:22:02;;;;;;;37.90;24.10;;;;;;;;;;4933768;29;20499;-78
2022/11/14 13:24:48;;;;;;;36.58;23.33;;;;;;;;;;4937249;29;20088;-78
2022/11/14 13:27:25;;;;;;;34.25;23.73;;;;;;;;;;4933650;29;20040;-77
2022/11/14 13:29:51;;;;;;;34.40;23.15;;;;;;;;;;4929388;29;20544;-77
2022/11/14 13:32:36;;;;;;;34.22;23.02;;;;;;;;;;4944020;29;20118;-77
2022/11/14 13:35:05;;;;;;;34.53;22.48;;;;;;;;;;4931233;29;20031;-77
2022/11/14 13:37:37;;;;;;;35.25;24.08;;;;;;;;;;4933493;29;20020;-78
2022/11/14 13:40:16;;;;;;;32.15;21.90;;;;;;;;;;4933196;29;20055;-77
2022/11/14 13:42:46;;;;;;;33.67;22.42;;;;;;;;;;4917103;29;20545;-76
2022/11/14 13:45:27;;;;;;;32.65;22.00;;;;;;;;;;4935507;29;20557;-77
2022/11/14 13:48:12;;;;;;;33.92;23.27;;;;;;;;;;4919432;29;20055;-76
2022/11/14 13:50:42;;;;;;;29.90;20.27;;;;;;;;;;4919412;29;20032;-83
2022/11/14 13:53:22;;;;;;;34.25;20.60;;;;;;;;;;4931416;29;20047;-79
2022/11/14 13:55:48;;;;;;;31.67;21.20;;;;;;;;;;4938482;29;20449;-77
2022/11/14 13:58:20;;;;;;;31.58;20.00;;;;;;;;;;4941849;29;20040;-79
2022/11/14 14:00:55;;;;;;;29.45;20.30;;;;;;;;;;4937158;29;20083;-78
2022/11/14 14:03:32;;;;;;;30.63;21.15;;;;;;;;;;4929279;29;20388;-78
2022/11/14 14:06:01;;;;;;;33.08;20.15;;;;;;;;;;4934916;28;20050;-78
2022/11/14 14:08:33;;;;;;;33.72;21.70;;;;;;;;;;4925729;29;20028;-82
2022/11/14 14:10:59;;;;;;;27.70;19.83;;;;;;;;;;4930876;29;20040;-78
2022/11/14 14:13:42;;;;;;;30.63;20.65;;;;;;;;;;4934730;29;20434;-79
2022/11/14 14:16:33;;;;;;;28.75;20.42;;;;;;;;;;4924178;29;20296;-77
2022/11/14 14:18:59;;;;;;;28.67;20.25;;;;;;;;;;4926149;29;20088;-78
2022/11/14 14:21:34;;;;;;;29.00;19.17;;;;;;;;;;4941877;28;20035;-77
2022/11/14 14:24:19;;;;;;;30.33;19.13;;;;;;;;;;4938845;29;20035;-80
2022/11/14 14:27:05;;;;;;;29.35;19.92;;;;;;;;;;4938117;29;20358;-78
2022/11/14 14:29:47;;;;;;;27.10;18.13;;;;;;;;;;4935054;29;20035;-83
2022/11/14 14:32:15;;;;;;;29.85;18.55;;;;;;;;;;4943631;29;20113;-79
2022/11/14 14:34:41;;;;;;;28.25;19.40;;;;;;;;;;4934681;29;20477;-78
2022/11/14 14:37:20;;;;;;;28.98;19.75;;;;;;;;;;4935830;29;20633;-81